createdAt,value
2018-07-01T16:02:41.819Z,26.90
2018-07-01T16:03:41.808Z,26.95
2018-07-01T16:04:41.794Z,27.19
2018-07-01T16:05:41.786Z,27.16
2018-07-01T16:06:41.775Z,26.94
2018-07-01T16:07:41.772Z,26.86
2018-07-01T16:08:41.764Z,26.85
2018-07-01T16:09:41.751Z,26.71
2018-07-01T16:10:41.747Z,26.80
2018-07-01T16:11:41.734Z,26.90
2018-07-01T16:12:41.735Z,26.80
2018-07-01T16:13:41.718Z,26.89
2018-07-01T16:14:41.716Z,26.83
2018-07-01T16:15:41.710Z,26.93
2018-07-01T16:16:41.689Z,26.79
2018-07-01T16:17:41.740Z,26.78
2018-07-01T16:18:41.683Z,26.70
2018-07-01T16:19:41.666Z,26.68
2018-07-01T16:20:41.664Z,26.64
2018-07-01T16:21:41.654Z,26.60
2018-07-01T16:22:41.647Z,26.68
2018-07-01T16:23:41.635Z,26.80
2018-07-01T16:24:41.630Z,26.75
2018-07-01T16:25:41.619Z,26.86
2018-07-01T16:26:41.616Z,26.86
2018-07-01T16:27:41.606Z,26.79
2018-07-01T16:28:41.628Z,26.85
2018-07-01T16:29:41.587Z,26.86
2018-07-01T16:30:41.582Z,26.65
2018-07-01T16:31:41.572Z,26.65
2018-07-01T16:32:41.575Z,26.73
2018-07-01T16:33:41.568Z,26.56
2018-07-01T16:34:41.590Z,26.63
2018-07-01T16:35:41.543Z,26.65
2018-07-01T16:36:41.603Z,26.82
2018-07-01T16:37:41.528Z,26.83
2018-07-01T16:38:41.628Z,26.71
2018-07-01T16:39:41.507Z,26.80
2018-07-01T16:40:41.517Z,26.76
2018-07-01T16:41:41.488Z,26.56
2018-07-01T16:42:41.533Z,26.56
2018-07-01T16:43:41.469Z,26.52
2018-07-01T16:44:41.514Z,26.48
2018-07-01T16:45:41.465Z,26.43
2018-07-01T16:46:41.508Z,26.48
2018-07-01T16:47:41.440Z,26.56
2018-07-01T16:48:41.429Z,26.46
2018-07-01T16:49:41.431Z,26.56
2018-07-01T16:50:41.415Z,26.53
2018-07-01T16:51:41.407Z,26.61
2018-07-01T16:52:41.391Z,26.63
2018-07-01T16:53:41.388Z,26.57
2018-07-01T16:54:41.375Z,26.58
2018-07-01T16:55:41.387Z,26.51
2018-07-01T16:56:41.361Z,26.42
2018-07-01T16:57:41.354Z,26.42
2018-07-01T16:58:41.343Z,26.38
2018-07-01T16:59:41.335Z,26.21
2018-07-01T17:00:41.336Z,26.10
2018-07-01T17:01:41.319Z,26.10
2018-07-01T17:02:41.316Z,25.96
2018-07-01T17:03:41.308Z,26.03
2018-07-01T17:04:41.297Z,26.07
2018-07-01T17:05:41.287Z,26.11
2018-07-01T17:06:41.277Z,26.00
2018-07-01T17:07:41.267Z,26.05
2018-07-01T17:08:41.267Z,26.01
2018-07-01T17:09:41.251Z,26.05
2018-07-01T17:10:41.244Z,25.96
2018-07-01T17:11:41.243Z,26.01
2018-07-01T17:12:41.225Z,26.07
2018-07-01T17:13:41.354Z,26.16
2018-07-01T17:14:41.219Z,26.08
2018-07-01T17:15:41.199Z,26.19
2018-07-01T17:16:41.193Z,26.11
2018-07-01T17:17:41.183Z,26.10
2018-07-01T17:18:41.176Z,26.07
2018-07-01T17:19:41.215Z,25.86
2018-07-01T17:20:41.159Z,25.81
2018-07-01T17:21:41.161Z,25.93
2018-07-01T17:22:41.147Z,25.85
2018-07-01T17:23:41.140Z,25.96
2018-07-01T17:24:41.128Z,25.89
2018-07-01T17:25:41.127Z,25.77
2018-07-01T17:26:41.110Z,25.67
2018-07-01T17:27:41.097Z,25.78
2018-07-01T17:28:41.104Z,25.75
2018-07-01T17:29:41.086Z,25.83
2018-07-01T17:30:41.072Z,25.82
2018-07-01T17:31:41.067Z,25.82
2018-07-01T17:32:41.058Z,25.78
2018-07-01T17:33:41.045Z,25.77
2018-07-01T17:34:41.043Z,25.73
2018-07-01T17:35:41.044Z,25.46
2018-07-01T17:36:41.017Z,25.51
2018-07-01T17:37:41.020Z,25.59
2018-07-01T17:38:41.020Z,25.52
2018-07-01T17:39:40.999Z,25.55
2018-07-01T17:40:40.994Z,25.49
2018-07-01T17:41:40.973Z,25.46
2018-07-01T17:42:40.965Z,25.33
2018-07-01T17:43:40.967Z,25.36
2018-07-01T17:44:40.956Z,25.28
2018-07-01T17:45:40.941Z,25.28
2018-07-01T17:46:40.925Z,25.30
2018-07-01T17:47:40.923Z,25.14
2018-07-01T17:48:40.918Z,25.06
2018-07-01T17:49:40.905Z,25.09
2018-07-01T17:50:40.891Z,25.12
2018-07-01T17:51:40.887Z,25.09
2018-07-01T17:52:40.879Z,25.08
2018-07-01T17:53:40.916Z,24.99
2018-07-01T17:54:40.857Z,24.99
2018-07-01T17:55:40.849Z,25.01
2018-07-01T17:56:40.845Z,25.04
2018-07-01T17:57:40.840Z,25.04
2018-07-01T17:58:40.829Z,24.97
2018-07-01T17:59:40.816Z,25.03
2018-07-01T18:00:40.814Z,24.90
2018-07-01T18:01:40.795Z,24.97
2018-07-01T18:02:40.783Z,24.90
2018-07-01T18:03:40.779Z,24.94
2018-07-01T18:04:40.764Z,24.93
2018-07-01T18:05:40.755Z,25.01
2018-07-01T18:06:40.748Z,24.97
2018-07-01T18:07:40.739Z,25.08
2018-07-01T18:08:40.729Z,25.01
2018-07-01T18:09:40.826Z,24.99
2018-07-01T18:10:40.720Z,25.12
2018-07-01T18:11:40.703Z,24.96
2018-07-01T18:12:40.688Z,25.00
2018-07-01T18:13:40.680Z,24.91
2018-07-01T18:14:40.673Z,24.89
2018-07-01T18:15:40.669Z,24.84
2018-07-01T18:16:40.652Z,24.89
2018-07-01T18:17:40.640Z,24.96
2018-07-01T18:18:40.681Z,24.91
2018-07-01T18:19:40.629Z,24.93
2018-07-01T18:20:40.613Z,24.91
2018-07-01T18:21:42.929Z,24.90
2018-07-01T18:23:09.758Z,24.75
2018-07-01T18:24:11.129Z,24.91
2018-07-01T18:24:58.070Z,24.89
2018-07-01T18:25:40.574Z,24.94
2018-07-01T18:26:40.589Z,24.82
2018-07-01T18:27:47.839Z,24.63
2018-07-01T18:28:48.662Z,24.63
2018-07-01T18:29:40.539Z,24.63
2018-07-01T18:30:40.524Z,24.63
2018-07-01T18:31:40.560Z,24.60
2018-07-01T18:32:40.501Z,24.59
2018-07-01T18:33:40.488Z,24.66
2018-07-01T18:34:40.595Z,24.55
2018-07-01T18:35:40.479Z,24.51
2018-07-01T18:36:40.470Z,24.40
2018-07-01T18:37:40.449Z,24.40
2018-07-01T18:38:40.532Z,24.38
2018-07-01T18:39:40.437Z,24.51
2018-07-01T18:40:40.421Z,24.47
2018-07-01T18:41:40.417Z,24.40
2018-07-01T18:42:40.404Z,24.33
2018-07-01T18:43:40.397Z,24.33
2018-07-01T18:44:40.388Z,24.33
2018-07-01T18:45:40.380Z,24.36
2018-07-01T18:46:40.374Z,24.33
2018-07-01T18:47:40.355Z,24.18
2018-07-01T18:48:40.377Z,24.21
2018-07-01T18:49:40.338Z,24.03
2018-07-01T18:50:40.327Z,24.08
2018-07-01T18:51:40.317Z,24.07
2018-07-01T18:52:40.310Z,24.01
2018-07-01T18:53:40.310Z,24.03
2018-07-01T18:54:40.286Z,23.96
2018-07-01T18:55:40.333Z,23.98
2018-07-01T18:56:40.264Z,23.96
2018-07-01T18:57:40.257Z,23.94
2018-07-01T18:58:40.255Z,23.81
2018-07-01T18:59:40.344Z,23.89
2018-07-01T19:00:40.230Z,23.88
2018-07-01T19:01:40.303Z,23.86
2018-07-01T19:02:40.207Z,23.85
2018-07-01T19:03:40.243Z,23.88
2018-07-01T19:04:40.190Z,23.85
2018-07-01T19:05:40.179Z,23.86
2018-07-01T19:06:40.168Z,23.85
2018-07-01T19:07:40.158Z,23.71
2018-07-01T19:08:40.155Z,23.74
2018-07-01T19:09:40.135Z,23.67
2018-07-01T19:10:40.143Z,23.66
2018-07-01T19:11:40.128Z,23.61
2018-07-01T19:12:40.132Z,23.63
2018-07-01T19:13:40.094Z,23.59
2018-07-01T19:14:40.082Z,23.61
2018-07-01T19:15:40.094Z,23.63
2018-07-01T19:16:40.067Z,23.69
2018-07-01T19:17:40.059Z,23.56
2018-07-01T19:18:40.045Z,23.52
2018-07-01T19:19:40.037Z,23.39
2018-07-01T19:20:40.025Z,23.36
2018-07-01T19:21:40.017Z,23.36
2018-07-01T19:22:40.010Z,23.37
2018-07-01T19:23:40.003Z,23.39
2018-07-01T19:24:39.987Z,23.34
2018-07-01T19:25:39.976Z,23.31
2018-07-01T19:26:39.967Z,23.29
2018-07-01T19:27:39.963Z,23.34
2018-07-01T19:28:39.944Z,23.28
2018-07-01T19:29:39.932Z,23.08
2018-07-01T19:30:39.917Z,23.14
2018-07-01T19:31:39.908Z,23.07
2018-07-01T19:32:39.899Z,23.11
2018-07-01T19:33:39.886Z,23.13
2018-07-01T19:34:39.877Z,23.18
2018-07-01T19:35:39.868Z,23.18
2018-07-01T19:36:39.858Z,23.22
2018-07-01T19:37:39.855Z,23.37
2018-07-01T19:38:39.840Z,23.37
2018-07-01T19:39:39.832Z,23.33
2018-07-01T19:40:39.816Z,23.39
2018-07-01T19:41:39.804Z,23.26
2018-07-01T19:42:39.920Z,23.18
2018-07-01T19:43:40.064Z,23.23
2018-07-01T19:44:39.779Z,23.04
2018-07-01T19:45:39.767Z,23.04
2018-07-01T19:46:39.751Z,23.01
2018-07-01T19:47:39.746Z,23.03
2018-07-01T19:48:39.753Z,23.03
2018-07-01T19:49:39.717Z,22.95
2018-07-01T19:50:39.717Z,22.85
2018-07-01T19:51:39.710Z,22.80
2018-07-01T19:52:39.695Z,22.67
2018-07-01T19:53:39.688Z,22.77
2018-07-01T19:54:39.666Z,22.61
2018-07-01T19:55:39.667Z,22.76
2018-07-01T19:56:39.649Z,22.73
2018-07-01T19:57:39.636Z,22.68
2018-07-01T19:58:39.625Z,22.70
2018-07-01T19:59:39.621Z,22.62
2018-07-01T20:00:39.607Z,22.56
2018-07-01T20:01:39.602Z,22.66
2018-07-01T20:02:39.586Z,22.59
2018-07-01T20:03:39.571Z,22.64
2018-07-01T20:04:39.563Z,22.66
2018-07-01T20:05:39.555Z,22.61
2018-07-01T20:06:39.549Z,22.55
2018-07-01T20:07:39.547Z,22.68
2018-07-01T20:08:39.519Z,22.58
2018-07-01T20:09:39.517Z,22.49
2018-07-01T20:10:39.504Z,22.49
2018-07-01T20:11:39.487Z,22.46
2018-07-01T20:12:39.482Z,22.49
2018-07-01T20:13:39.466Z,22.46
2018-07-01T20:14:39.457Z,22.43
2018-07-01T20:15:39.450Z,22.51
2018-07-01T20:16:39.432Z,22.46
2018-07-01T20:17:39.432Z,22.48
2018-07-01T20:18:39.455Z,22.51
2018-07-01T20:19:39.402Z,22.49
2018-07-01T20:20:39.402Z,22.46
2018-07-01T20:21:39.381Z,22.41
2018-07-01T20:22:39.377Z,22.40
2018-07-01T20:23:39.377Z,22.41
2018-07-01T20:24:39.360Z,22.34
2018-07-01T20:25:39.399Z,22.22
2018-07-01T20:26:39.332Z,22.21
2018-07-01T20:27:39.323Z,22.19
2018-07-01T20:28:39.313Z,22.11
2018-07-01T20:29:39.289Z,22.09
2018-07-01T20:30:39.280Z,22.12
2018-07-01T20:31:39.271Z,21.90
2018-07-01T20:32:39.265Z,21.84
2018-07-01T20:33:39.257Z,21.94
2018-07-01T20:34:39.248Z,21.91
2018-07-01T20:35:39.232Z,21.90
2018-07-01T20:36:39.227Z,21.80
2018-07-01T20:37:39.221Z,21.74
2018-07-01T20:38:39.201Z,21.77
2018-07-01T20:39:39.200Z,21.77
2018-07-01T20:40:39.170Z,21.69
2018-07-01T20:41:39.165Z,21.71
2018-07-01T20:42:39.151Z,21.67
2018-07-01T20:43:39.152Z,21.65
2018-07-01T20:44:39.128Z,21.63
2018-07-01T20:45:39.122Z,21.59
2018-07-01T20:46:39.110Z,21.56
2018-07-01T20:47:39.107Z,21.53
2018-07-01T20:48:39.090Z,21.59
2018-07-01T20:49:39.083Z,21.55
2018-07-01T20:50:39.055Z,21.56
2018-07-01T20:51:39.208Z,21.51
2018-07-01T20:52:39.038Z,21.50
2018-07-01T20:53:39.132Z,21.51
2018-07-01T20:54:39.023Z,21.48
2018-07-01T20:55:39.011Z,21.50
2018-07-01T20:56:38.987Z,21.50
2018-07-01T20:57:38.980Z,21.48
2018-07-01T20:58:39.014Z,21.45
2018-07-01T20:59:39.010Z,21.48
2018-07-01T21:00:38.955Z,21.51
2018-07-01T21:01:38.935Z,21.37
2018-07-01T21:02:38.921Z,21.40
2018-07-01T21:03:39.009Z,21.32
2018-07-01T21:04:38.900Z,21.28
2018-07-01T21:05:38.932Z,21.29
2018-07-01T21:06:38.874Z,21.25
2018-07-01T21:07:38.873Z,21.29
2018-07-01T21:08:38.862Z,21.22
2018-07-01T21:09:38.848Z,21.28
2018-07-01T21:10:38.834Z,21.23
2018-07-01T21:11:38.831Z,21.28
2018-07-01T21:12:38.878Z,21.30
2018-07-01T21:13:38.798Z,21.22
2018-07-01T21:14:38.788Z,21.34
2018-07-01T21:15:38.772Z,21.28
2018-07-01T21:16:38.767Z,21.32
2018-07-01T21:17:38.766Z,21.23
2018-07-01T21:18:38.743Z,21.22
2018-07-01T21:19:38.727Z,21.18
2018-07-01T21:20:38.719Z,21.22
2018-07-01T21:21:38.708Z,21.26
2018-07-01T21:22:38.689Z,21.20
2018-07-01T21:23:38.719Z,21.20
2018-07-01T21:24:38.673Z,21.20
2018-07-01T21:25:38.672Z,21.19
2018-07-01T21:26:38.648Z,21.18
2018-07-01T21:27:38.638Z,21.14
2018-07-01T21:28:38.627Z,21.18
2018-07-01T21:29:38.618Z,21.16
2018-07-01T21:30:38.600Z,21.13
2018-07-01T21:31:38.590Z,21.13
2018-07-01T21:32:38.576Z,21.19
2018-07-01T21:33:38.568Z,21.16
2018-07-01T21:34:38.557Z,21.11
2018-07-01T21:35:38.548Z,21.08
2018-07-01T21:36:38.541Z,21.08
2018-07-01T21:37:38.523Z,21.00
2018-07-01T21:38:38.517Z,21.05
2018-07-01T21:39:38.507Z,20.98
2018-07-01T21:40:38.483Z,20.93
2018-07-01T21:41:38.469Z,20.95
2018-07-01T21:42:38.467Z,20.95
2018-07-01T21:43:38.467Z,20.97
2018-07-01T21:44:38.437Z,20.92
2018-07-01T21:45:38.426Z,20.92
2018-07-01T21:46:38.417Z,20.90
2018-07-01T21:47:38.410Z,20.77
2018-07-01T21:48:38.399Z,20.79
2018-07-01T21:49:38.379Z,20.71
2018-07-01T21:50:38.366Z,20.71
2018-07-01T21:51:38.358Z,20.70
2018-07-01T21:52:38.340Z,20.65
2018-07-01T21:53:38.348Z,20.73
2018-07-01T21:54:38.321Z,20.75
2018-07-01T21:55:38.327Z,20.71
2018-07-01T21:56:38.298Z,20.74
2018-07-01T21:57:38.289Z,20.70
2018-07-01T21:58:38.277Z,20.67
2018-07-01T21:59:38.266Z,20.70
2018-07-01T22:00:38.264Z,20.74
2018-07-01T22:01:38.242Z,20.68
2018-07-01T22:02:38.224Z,20.67
2018-07-01T22:03:38.218Z,20.70
2018-07-01T22:04:38.217Z,20.68
2018-07-01T22:05:38.190Z,20.74
2018-07-01T22:06:38.191Z,20.67
2018-07-01T22:07:38.167Z,20.71
2018-07-01T22:08:38.161Z,20.70
2018-07-01T22:09:38.146Z,20.64
2018-07-01T22:10:38.238Z,20.65
2018-07-01T22:11:38.126Z,20.71
2018-07-01T22:12:38.106Z,20.65
2018-07-01T22:13:38.099Z,20.61
2018-07-01T22:14:38.086Z,20.48
2018-07-01T22:15:38.088Z,20.36
2018-07-01T22:16:38.062Z,20.19
2018-07-01T22:17:38.047Z,20.26
2018-07-01T22:18:38.039Z,20.22
2018-07-01T22:19:38.024Z,20.36
2018-07-01T22:20:38.015Z,20.32
2018-07-01T22:21:38.007Z,20.25
2018-07-01T22:22:37.986Z,20.39
2018-07-01T22:23:37.990Z,20.33
2018-07-01T22:24:37.964Z,20.33
2018-07-01T22:25:37.951Z,20.34
2018-07-01T22:26:37.939Z,20.39
2018-07-01T22:27:37.929Z,20.32
2018-07-01T22:28:37.913Z,20.39
2018-07-01T22:29:37.904Z,20.39
2018-07-01T22:30:37.893Z,20.30
2018-07-01T22:31:37.887Z,20.36
2018-07-01T22:32:37.876Z,20.22
2018-07-01T22:33:37.872Z,20.25
2018-07-01T22:34:37.844Z,20.18
2018-07-01T22:35:37.841Z,20.19
2018-07-01T22:36:37.826Z,20.17
2018-07-01T22:37:37.806Z,20.17
2018-07-01T22:38:37.795Z,20.14
2018-07-01T22:39:37.793Z,19.99
2018-07-01T22:40:44.040Z,20.04
2018-07-01T22:41:37.755Z,20.05
2018-07-01T22:42:37.743Z,20.02
2018-07-01T22:43:37.736Z,20.07
2018-07-01T22:44:37.730Z,20.11
2018-07-01T22:45:37.710Z,20.09
2018-07-01T22:46:37.697Z,20.11
2018-07-01T22:47:37.686Z,20.11
2018-07-01T22:48:37.684Z,20.11
2018-07-01T22:49:37.665Z,20.11
2018-07-01T22:50:37.645Z,20.05
2018-07-01T22:51:37.636Z,20.02
2018-07-01T22:52:37.621Z,20.02
2018-07-01T22:53:37.615Z,20.07
2018-07-01T22:54:37.605Z,20.12
2018-07-01T22:55:37.593Z,20.12
2018-07-01T22:56:37.581Z,19.99
2018-07-01T22:57:37.565Z,19.90
2018-07-01T22:58:37.554Z,19.79
2018-07-01T22:59:37.539Z,19.84
2018-07-01T23:00:37.527Z,19.84
2018-07-01T23:01:37.516Z,19.63
2018-07-01T23:02:37.499Z,19.60
2018-07-01T23:03:37.523Z,19.56
2018-07-01T23:04:37.480Z,19.52
2018-07-01T23:05:37.466Z,19.53
2018-07-01T23:06:37.448Z,19.49
2018-07-01T23:07:37.445Z,19.56
2018-07-01T23:08:37.428Z,19.50
2018-07-01T23:09:37.414Z,19.53
2018-07-01T23:10:37.405Z,19.50
2018-07-01T23:11:37.396Z,19.63
2018-07-01T23:12:37.376Z,19.53
2018-07-01T23:13:37.364Z,19.52
2018-07-01T23:14:37.354Z,19.52
2018-07-01T23:15:37.344Z,19.24
2018-07-01T23:16:37.336Z,19.27
2018-07-01T23:17:37.331Z,19.24
2018-07-01T23:18:37.306Z,19.17
2018-07-01T23:19:37.293Z,19.17
2018-07-01T23:20:37.279Z,19.23
2018-07-01T23:21:37.268Z,19.30
2018-07-01T23:22:37.256Z,19.34
2018-07-01T23:23:37.239Z,19.27
2018-07-01T23:24:37.226Z,19.34
2018-07-01T23:25:37.214Z,19.34
2018-07-01T23:26:37.207Z,19.37
2018-07-01T23:27:37.191Z,19.34
2018-07-01T23:28:37.179Z,19.34
2018-07-01T23:29:37.167Z,19.42
2018-07-01T23:30:37.152Z,19.42
2018-07-01T23:31:37.140Z,19.41
2018-07-01T23:32:37.125Z,19.35
2018-07-01T23:33:37.116Z,19.39
2018-07-01T23:34:37.104Z,19.39
2018-07-01T23:35:37.087Z,19.30
2018-07-01T23:36:37.076Z,19.37
2018-07-01T23:37:37.064Z,19.27
2018-07-01T23:38:37.059Z,19.24
2018-07-01T23:39:37.047Z,19.15
2018-07-01T23:40:37.026Z,19.12
2018-07-01T23:41:37.017Z,19.13
2018-07-01T23:42:37.007Z,19.04
2018-07-01T23:43:36.987Z,19.07
2018-07-01T23:44:36.977Z,19.07
2018-07-01T23:45:36.970Z,19.01
2018-07-01T23:46:36.955Z,19.01
2018-07-01T23:47:36.937Z,19.00
2018-07-01T23:48:36.927Z,18.97
2018-07-01T23:49:36.911Z,18.97
2018-07-01T23:50:36.899Z,19.01
2018-07-01T23:51:36.895Z,19.00
2018-07-01T23:52:36.882Z,19.05
2018-07-01T23:53:36.867Z,19.04
2018-07-01T23:54:36.849Z,18.97
2018-07-01T23:55:36.843Z,19.00
2018-07-01T23:56:36.827Z,19.01
2018-07-01T23:57:36.809Z,19.05
2018-07-01T23:58:36.808Z,19.00
2018-07-01T23:59:36.787Z,18.93
